Time;durP1;ratioP1;P1;durP2;ratioP2;P2;SDS_P1;SDS_P2;PMS_P1;PMS_P2;Temp;Humidity;BMP_temperature;BMP_pressure;BME280_temperature;BME280_humidity;BME280_pressure;Samples;Min_cycle;Max_cycle;Signal;HPM_P1;HPM_P2
2022/11/07 00:00:22;;;;;;;5.47;2.60;;;;;;;-144.22;100.00;60274.75;6267231;28;20378;-42
2022/11/07 00:03:24;;;;;;;5.17;2.70;;;;;;;-144.22;100.00;60274.75;6268597;28;20710;-41
2022/11/07 00:06:26;;;;;;;2.80;2.23;;;;;;;-144.22;100.00;60274.75;6265691;28;20235;-42
2022/11/07 00:09:28;;;;;;;4.07;2.70;;;;;;;-144.22;100.00;60274.75;6252338;28;20307;-41
2022/11/07 00:12:30;;;;;;;4.57;2.90;;;;;;;-144.22;100.00;60274.75;6263062;28;20244;-42
2022/11/07 00:15:32;;;;;;;4.60;2.90;;;;;;;-144.22;100.00;60274.75;6264932;28;20342;-42
2022/11/07 00:18:35;;;;;;;3.30;2.67;;;;;;;-144.22;100.00;60274.75;6263805;28;20306;-42
2022/11/07 00:21:38;;;;;;;4.63;2.77;;;;;;;-144.22;100.00;60274.75;6264857;28;20284;-42
2022/11/07 00:24:40;;;;;;;2.83;2.50;;;;;;;-144.22;100.00;60274.75;6267689;28;20671;-42
2022/11/07 00:27:42;;;;;;;4.63;2.57;;;;;;;-144.22;100.00;60274.75;6263161;28;20223;-42
2022/11/07 00:30:44;;;;;;;4.60;2.90;;;;;;;-144.22;100.00;60274.75;6264200;28;20252;-42
2022/11/07 00:33:47;;;;;;;4.60;2.57;;;;;;;-144.22;100.00;60274.75;6264489;28;20243;-41
2022/11/07 00:36:49;;;;;;;5.07;2.73;;;;;;;-144.22;100.00;60274.75;6265960;28;20301;-41
2022/11/07 00:39:51;;;;;;;3.53;2.47;;;;;;;-144.22;100.00;60274.75;6264053;28;20355;-42
2022/11/07 00:42:53;;;;;;;4.37;2.70;;;;;;;-144.22;100.00;60274.75;6271505;28;20308;-42
2022/11/07 00:45:56;;;;;;;2.97;2.67;;;;;;;-144.22;100.00;60274.75;6269731;28;20222;-42
2022/11/07 00:48:58;;;;;;;2.07;1.87;;;;;;;-144.22;100.00;60274.75;6269537;28;20230;-42
2022/11/07 00:52:00;;;;;;;5.33;2.23;;;;;;;-144.22;100.00;60274.75;6269288;28;20273;-42
2022/11/07 00:55:03;;;;;;;3.57;2.60;;;;;;;-144.22;100.00;60274.75;6269976;28;20219;-42
2022/11/07 00:58:05;;;;;;;3.70;2.70;;;;;;;-144.22;100.00;60274.75;6269954;28;20312;-41
2022/11/07 01:01:19;;;;;;;3.37;2.40;;;;;;;-144.22;100.00;60274.75;6270906;28;20278;-42
2022/11/07 01:07:42;;;;;;;5.23;2.77;;;;;;;-144.22;100.00;60274.75;6269378;28;20244;-42
2022/11/07 01:10:44;;;;;;;4.53;2.47;;;;;;;-144.22;100.00;60274.75;6269107;28;20226;-42
2022/11/07 01:13:46;;;;;;;3.27;2.70;;;;;;;-144.22;100.00;60274.75;6269452;28;20242;-41
2022/11/07 01:16:49;;;;;;;5.27;2.60;;;;;;;-144.22;100.00;60274.75;6267919;28;20240;-42
2022/11/07 01:19:51;;;;;;;4.20;2.67;;;;;;;-144.22;100.00;60274.75;6271243;28;20230;-44
2022/11/07 01:22:53;;;;;;;4.07;2.97;;;;;;;-144.22;100.00;60274.75;6268994;28;20539;-42
2022/11/07 01:25:56;;;;;;;4.20;3.00;;;;;;;-144.22;100.00;60274.75;6269379;28;20234;-42
2022/11/07 01:28:58;;;;;;;4.50;2.47;;;;;;;-144.22;100.00;60274.75;6268541;28;20259;-42
2022/11/07 01:32:00;;;;;;;3.13;2.43;;;;;;;-144.22;100.00;60274.75;6267390;28;20312;-42
2022/11/07 01:35:02;;;;;;;3.97;2.73;;;;;;;-144.22;100.00;60274.75;6268117;28;20227;-42
2022/11/07 01:38:04;;;;;;;3.07;2.73;;;;;;;-144.22;100.00;60274.75;6269920;28;20241;-42
2022/11/07 01:41:21;;;;;;;3.70;2.30;;;;;;;-144.22;100.00;60274.75;6266605;28;20396;-41
2022/11/07 01:44:23;;;;;;;4.13;2.90;;;;;;;-144.22;100.00;60274.75;6268620;28;20219;-42
2022/11/07 01:47:32;;;;;;;4.50;2.43;;;;;;;-144.22;100.00;60274.75;6267183;28;20226;-43
2022/11/07 01:50:35;;;;;;;2.87;2.27;;;;;;;-144.22;100.00;60274.75;6266813;28;20226;-41
2022/11/07 01:53:37;;;;;;;4.93;2.50;;;;;;;-144.22;100.00;60274.75;6271993;28;20219;-42
2022/11/07 01:56:42;;;;;;;2.70;2.27;;;;;;;-144.22;100.00;60274.75;6269104;28;20227;-42
2022/11/07 01:59:45;;;;;;;2.97;2.50;;;;;;;-144.22;100.00;60274.75;6267512;28;20733;-42
2022/11/07 02:02:58;;;;;;;5.17;2.60;;;;;;;-144.22;100.00;60274.75;6270300;28;20228;-42
2022/11/07 02:06:04;;;;;;;4.20;2.30;;;;;;;-144.22;100.00;60274.75;6270152;28;20240;-42
2022/11/07 02:09:06;;;;;;;3.50;2.33;;;;;;;-144.22;100.00;60274.75;6265836;28;20239;-42
2022/11/07 02:12:09;;;;;;;3.50;2.10;;;;;;;-144.22;100.00;60274.75;6267512;28;20225;-42
2022/11/07 02:15:11;;;;;;;3.50;2.20;;;;;;;-144.22;100.00;60274.75;6266941;28;20223;-43
2022/11/07 02:18:13;;;;;;;4.27;2.13;;;;;;;-144.22;100.00;60274.75;6268674;28;20221;-42
2022/11/07 02:21:37;;;;;;;3.83;2.30;;;;;;;-144.22;100.00;60274.75;6264722;28;20294;-42
2022/11/07 02:24:40;;;;;;;5.07;2.73;;;;;;;-144.22;100.00;60274.75;6268516;28;20226;-41
2022/11/07 02:27:45;;;;;;;2.40;2.17;;;;;;;-144.22;100.00;60274.75;6266557;28;20259;-41
2022/11/07 02:30:47;;;;;;;3.67;2.50;;;;;;;-144.22;100.00;60274.75;6266508;28;20260;-41
2022/11/07 02:33:49;;;;;;;3.43;2.40;;;;;;;-144.22;100.00;60274.75;6268371;28;20544;-41
2022/11/07 02:36:52;;;;;;;4.50;2.30;;;;;;;-144.22;100.00;60274.75;6268811;28;20328;-41
2022/11/07 02:39:54;;;;;;;4.90;2.63;;;;;;;-144.22;100.00;60274.75;6266616;28;20247;-41
2022/11/07 02:42:58;;;;;;;3.10;2.47;;;;;;;-144.22;100.00;60274.75;6265389;28;20242;-41
2022/11/07 02:46:06;;;;;;;3.10;2.50;;;;;;;-144.22;100.00;60274.75;6266766;28;20231;-42
2022/11/07 02:49:08;;;;;;;3.47;2.10;;;;;;;-144.22;100.00;60274.75;6266885;28;20265;-42
2022/11/07 02:52:10;;;;;;;3.60;2.67;;;;;;;-144.22;100.00;60274.75;6268304;28;20245;-42
2022/11/07 02:55:13;;;;;;;3.97;2.60;;;;;;;-144.22;100.00;60274.75;6257579;28;20367;-42
2022/11/07 02:58:15;;;;;;;3.53;2.53;;;;;;;-144.22;100.00;60274.75;6268405;28;20241;-42
2022/11/07 03:01:19;;;;;;;5.87;2.83;;;;;;;-144.22;100.00;60274.75;6267217;28;20290;-42
2022/11/07 03:04:22;;;;;;;5.17;2.70;;;;;;;-144.22;100.00;60274.75;6267547;28;20244;-41
2022/11/07 03:07:25;;;;;;;3.83;2.77;;;;;;;-144.22;100.00;60274.75;6268107;28;20232;-42
2022/11/07 03:10:27;;;;;;;3.80;2.97;;;;;;;-144.22;100.00;60274.75;6266394;28;20366;-41
2022/11/07 03:13:29;;;;;;;3.03;2.30;;;;;;;-144.22;100.00;60274.75;6267613;28;20296;-42
2022/11/07 03:16:31;;;;;;;4.10;2.20;;;;;;;-144.22;100.00;60274.75;6265153;28;20320;-41
2022/11/07 03:19:33;;;;;;;3.43;2.00;;;;;;;-144.22;100.00;60274.75;6267032;28;20325;-42
2022/11/07 03:22:36;;;;;;;2.83;2.00;;;;;;;-144.22;100.00;60274.75;6269337;28;20628;-42
2022/11/07 03:25:38;;;;;;;4.20;1.90;;;;;;;-144.22;100.00;60274.75;6253809;28;20665;-42
2022/11/07 03:28:40;;;;;;;3.80;2.17;;;;;;;-144.22;100.00;60274.75;6265257;28;20237;-42
2022/11/07 03:31:42;;;;;;;2.00;1.80;;;;;;;-144.22;100.00;60274.75;6267366;28;20786;-43
2022/11/07 03:34:44;;;;;;;1.70;1.60;;;;;;;-144.22;100.00;60274.75;6264357;28;20249;-42
2022/11/07 03:37:48;;;;;;;1.73;1.63;;;;;;;-144.22;100.00;60274.75;6265500;28;20226;-41
2022/11/07 03:40:50;;;;;;;2.20;1.43;;;;;;;-144.22;100.00;60274.75;6264750;28;20319;-42
2022/11/07 03:43:53;;;;;;;2.50;1.77;;;;;;;-144.22;100.00;60274.75;6265622;28;20463;-41
2022/11/07 03:46:55;;;;;;;1.97;1.50;;;;;;;-144.22;100.00;60274.75;6265852;28;20233;-41
2022/11/07 03:49:57;;;;;;;1.97;1.47;;;;;;;-144.22;100.00;60274.75;6266933;28;20657;-41
2022/11/07 03:52:59;;;;;;;2.37;1.40;;;;;;;-144.22;100.00;60274.75;6266483;28;20226;-41
2022/11/07 03:56:08;;;;;;;2.20;1.47;;;;;;;-144.22;100.00;60274.75;6267883;28;20370;-41
2022/11/07 03:59:10;;;;;;;1.67;1.33;;;;;;;-144.22;100.00;60274.75;6266554;28;20276;-41
2022/11/07 04:02:13;;;;;;;1.70;1.20;;;;;;;-144.22;100.00;60274.75;6266502;28;20233;-41
2022/11/07 04:05:15;;;;;;;2.43;0.93;;;;;;;-144.22;100.00;60274.75;6265603;28;20227;-41
2022/11/07 04:08:18;;;;;;;1.30;1.20;;;;;;;-144.22;100.00;60274.75;6265378;28;20734;-41
2022/11/07 04:18:02;;;;;;;1.40;1.10;;;;;;;-144.22;100.00;60274.75;6264493;28;20334;-41
2022/11/07 04:21:04;;;;;;;1.27;1.13;;;;;;;-144.22;100.00;60274.75;6264144;28;20234;-41
2022/11/07 04:24:06;;;;;;;1.57;1.03;;;;;;;-144.22;100.00;60274.75;6273698;28;20597;-41
2022/11/07 04:30:30;;;;;;;1.40;1.00;;;;;;;-144.22;100.00;60274.75;6264325;28;20261;-41
2022/11/07 04:33:32;;;;;;;1.30;1.10;;;;;;;-144.22;100.00;60274.75;6264742;28;20315;-41
2022/11/07 04:36:35;;;;;;;1.60;1.03;;;;;;;-144.22;100.00;60274.75;6263532;28;20230;-41
2022/11/07 04:39:37;;;;;;;1.40;1.10;;;;;;;-144.22;100.00;60274.75;6265695;28;20230;-41
2022/11/07 04:42:39;;;;;;;1.20;1.10;;;;;;;-144.22;100.00;60274.75;6263917;28;20329;-42
2022/11/07 04:45:41;;;;;;;1.10;1.00;;;;;;;-144.22;100.00;60274.75;6266406;28;20234;-41
2022/11/07 04:48:43;;;;;;;1.30;1.17;;;;;;;-144.22;100.00;60274.75;6264564;28;20230;-42
2022/11/07 04:51:45;;;;;;;1.10;1.00;;;;;;;-144.22;100.00;60274.75;6263306;28;20360;-42
2022/11/07 04:54:48;;;;;;;0.83;0.83;;;;;;;-144.22;100.00;60274.75;6268869;28;20233;-41
2022/11/07 04:57:50;;;;;;;1.07;1.00;;;;;;;-144.22;100.00;60274.75;6264431;28;20243;-42
2022/11/07 05:00:52;;;;;;;3.83;1.00;;;;;;;-144.22;100.00;60274.75;6262869;28;20250;-42
2022/11/07 05:03:54;;;;;;;2.30;1.20;;;;;;;-144.22;100.00;60274.75;6263616;28;20237;-41
2022/11/07 05:06:56;;;;;;;1.33;1.23;;;;;;;-144.22;100.00;60274.75;6263986;28;20246;-42
2022/11/07 05:09:58;;;;;;;1.37;1.13;;;;;;;-144.22;100.00;60274.75;6261965;28;20233;-42
2022/11/07 05:13:01;;;;;;;1.53;1.10;;;;;;;-144.22;100.00;60274.75;6252837;28;20570;-42
2022/11/07 05:16:03;;;;;;;2.60;1.60;;;;;;;-144.22;100.00;60274.75;6265875;28;20234;-41
2022/11/07 05:19:05;;;;;;;1.10;1.00;;;;;;;-144.22;100.00;60274.75;6264006;28;20236;-42
2022/11/07 05:25:31;;;;;;;2.87;1.20;;;;;;;-144.22;100.00;60274.75;6266383;28;20789;-42
2022/11/07 05:28:33;;;;;;;1.57;1.30;;;;;;;-144.22;100.00;60274.75;6267305;28;20238;-41
2022/11/07 05:31:40;;;;;;;2.07;1.30;;;;;;;-144.22;100.00;60274.75;6268363;28;20286;-41
2022/11/07 05:34:42;;;;;;;1.53;0.97;;;;;;;-144.22;100.00;60274.75;6268321;28;20226;-41
2022/11/07 05:37:44;;;;;;;1.83;1.50;;;;;;;-144.22;100.00;60274.75;6267669;28;20236;-41
2022/11/07 05:40:46;;;;;;;1.40;1.30;;;;;;;-144.22;100.00;60274.75;6267998;28;20249;-41
2022/11/07 05:43:48;;;;;;;1.63;1.40;;;;;;;-144.22;100.00;60274.75;6268930;28;20316;-41
2022/11/07 05:46:51;;;;;;;1.10;1.00;;;;;;;-144.22;100.00;60274.75;6256921;28;20262;-41
2022/11/07 05:49:53;;;;;;;1.93;1.40;;;;;;;-144.22;100.00;60274.75;6266737;28;20728;-41
2022/11/07 05:52:56;;;;;;;3.67;1.77;;;;;;;-144.22;100.00;60274.75;6270105;28;20249;-41
2022/11/07 05:55:59;;;;;;;2.20;1.20;;;;;;;-144.22;100.00;60274.75;6269513;28;20234;-41
2022/11/07 05:59:01;;;;;;;2.27;1.37;;;;;;;-144.22;100.00;60274.75;6268520;28;20251;-41
2022/11/07 06:02:03;;;;;;;2.90;1.10;;;;;;;-144.22;100.00;60274.75;6269000;28;20229;-41
2022/11/07 06:05:06;;;;;;;1.23;1.13;;;;;;;-144.22;100.00;60274.75;6267313;28;20630;-41
2022/11/07 06:08:11;;;;;;;1.43;1.33;;;;;;;-144.22;100.00;60274.75;6267390;28;20317;-43
2022/11/07 06:11:13;;;;;;;1.97;1.50;;;;;;;-144.22;100.00;60274.75;6269354;28;20311;-41
2022/11/07 06:14:15;;;;;;;1.43;1.33;;;;;;;-144.22;100.00;60274.75;6266728;28;20230;-41
2022/11/07 06:17:17;;;;;;;1.40;1.10;;;;;;;-144.22;100.00;60274.75;6253967;28;20242;-41
2022/11/07 06:20:20;;;;;;;2.07;1.00;;;;;;;-144.22;100.00;60274.75;6267460;28;20262;-41
2022/11/07 06:23:22;;;;;;;1.47;1.17;;;;;;;-144.22;100.00;60274.75;6271993;28;20234;-41
2022/11/07 06:26:24;;;;;;;1.63;1.17;;;;;;;-144.22;100.00;60274.75;6268792;28;20233;-42
2022/11/07 06:29:26;;;;;;;1.00;0.90;;;;;;;-144.22;100.00;60274.75;6266318;28;20795;-41
2022/11/07 06:32:29;;;;;;;1.20;1.10;;;;;;;-144.22;100.00;60274.75;6266089;28;20241;-42
2022/11/07 06:35:31;;;;;;;1.20;1.10;;;;;;;-144.22;100.00;60274.75;6265923;28;20292;-41
2022/11/07 06:38:35;;;;;;;1.40;1.23;;;;;;;-144.22;100.00;60274.75;6267117;28;20270;-42
2022/11/07 06:41:37;;;;;;;1.43;1.33;;;;;;;-144.22;100.00;60274.75;6266963;28;20223;-41
2022/11/07 06:44:39;;;;;;;2.17;1.60;;;;;;;-144.22;100.00;60274.75;6265985;28;20235;-41
2022/11/07 06:47:41;;;;;;;2.07;1.67;;;;;;;-144.22;100.00;60274.75;6260969;28;20250;-41
2022/11/07 06:50:43;;;;;;;2.47;2.23;;;;;;;-144.22;100.00;60274.75;6246921;28;20262;-41
2022/11/07 06:53:45;;;;;;;2.13;1.70;;;;;;;-144.22;100.00;60274.75;6270421;28;20582;-41
2022/11/07 06:56:48;;;;;;;2.83;2.30;;;;;;;-144.22;100.00;60274.75;6266137;28;20536;-41
2022/11/07 06:59:50;;;;;;;2.53;1.93;;;;;;;-144.22;100.00;60274.75;6265903;28;20321;-41
2022/11/07 07:02:53;;;;;;;2.10;1.70;;;;;;;-144.22;100.00;60274.75;6268866;28;20371;-41
2022/11/07 07:06:01;;;;;;;4.00;2.30;;;;;;;-144.22;100.00;60274.75;6264569;28;20235;-42
2022/11/07 07:09:05;;;;;;;2.37;2.10;;;;;;;-144.22;100.00;60274.75;6266599;28;20729;-41
2022/11/07 07:12:09;;;;;;;2.37;2.10;;;;;;;-144.22;100.00;60274.75;6265135;28;20209;-41
2022/11/07 07:15:11;;;;;;;3.07;1.93;;;;;;;-144.22;100.00;60274.75;6264552;28;20260;-41
2022/11/07 07:18:13;;;;;;;1.87;1.60;;;;;;;-144.22;100.00;60274.75;6248847;28;20352;-41
2022/11/07 07:21:15;;;;;;;1.80;1.60;;;;;;;-144.22;100.00;60274.75;6264461;28;20332;-41
2022/11/07 07:24:18;;;;;;;1.90;1.30;;;;;;;-144.22;100.00;60274.75;6267835;28;20226;-41
2022/11/07 07:27:20;;;;;;;1.40;1.30;;;;;;;-144.22;100.00;60274.75;6265350;28;20260;-41
2022/11/07 07:30:22;;;;;;;1.33;1.20;;;;;;;-144.22;100.00;60274.75;6264843;28;20254;-42
2022/11/07 07:33:24;;;;;;;2.23;1.50;;;;;;;-144.22;100.00;60274.75;6265785;28;20355;-41
2022/11/07 07:36:26;;;;;;;1.70;1.30;;;;;;;-144.22;100.00;60274.75;6261835;28;20227;-42
2022/11/07 07:39:29;;;;;;;3.17;1.77;;;;;;;-144.22;100.00;60274.75;6266659;28;20223;-41
2022/11/07 07:42:31;;;;;;;1.93;1.40;;;;;;;-144.22;100.00;60274.75;6263736;28;20256;-41
2022/11/07 07:45:33;;;;;;;1.87;1.30;;;;;;;-144.22;100.00;60274.75;6265087;28;20226;-42
2022/11/07 07:48:36;;;;;;;1.30;1.20;;;;;;;-144.22;100.00;60274.75;6269416;28;20705;-42
2022/11/07 07:51:38;;;;;;;1.00;0.90;;;;;;;-144.22;100.00;60274.75;6266051;28;20612;-42
2022/11/07 07:54:40;;;;;;;2.03;1.20;;;;;;;-144.22;100.00;60274.75;6270143;28;20249;-41
2022/11/07 07:57:42;;;;;;;2.87;1.40;;;;;;;-144.22;100.00;60274.75;6264135;28;20284;-42
2022/11/07 08:00:44;;;;;;;1.97;1.23;;;;;;;-144.22;100.00;60274.75;6264965;28;20304;-41
2022/11/07 08:03:48;;;;;;;1.30;1.20;;;;;;;-144.22;100.00;60274.75;6265044;28;20733;-42
2022/11/07 08:07:06;;;;;;;1.60;1.50;;;;;;;-144.22;100.00;60274.75;6264853;28;20558;-42
2022/11/07 08:10:08;;;;;;;1.47;1.37;;;;;;;-144.22;100.00;60274.75;6248555;28;20380;-42
2022/11/07 08:13:30;;;;;;;1.60;1.50;;;;;;;-144.22;100.00;60274.75;6264536;28;20630;-42
2022/11/07 08:16:32;;;;;;;1.50;1.40;;;;;;;-144.22;100.00;60274.75;6264454;28;20578;-42
2022/11/07 08:19:34;;;;;;;1.53;1.20;;;;;;;-144.22;100.00;60274.75;6265481;28;20725;-41
2022/11/07 08:22:37;;;;;;;2.03;1.57;;;;;;;-144.22;100.00;60274.75;6267063;28;20246;-42
2022/11/07 08:25:40;;;;;;;2.07;1.63;;;;;;;-144.22;100.00;60274.75;6265306;28;20237;-41
2022/11/07 08:28:42;;;;;;;1.47;1.37;;;;;;;-144.22;100.00;60274.75;6261634;28;20238;-42
2022/11/07 08:31:44;;;;;;;1.50;1.40;;;;;;;-144.22;100.00;60274.75;6265550;28;20253;-42
2022/11/07 08:34:47;;;;;;;1.37;1.27;;;;;;;-144.22;100.00;60274.75;6263089;28;20629;-42
2022/11/07 08:37:52;;;;;;;1.90;1.20;;;;;;;-144.22;100.00;60274.75;6248278;28;20222;-43
2022/11/07 08:40:54;;;;;;;1.47;1.33;;;;;;;-144.22;100.00;60274.75;6267030;28;20616;-42
2022/11/07 08:43:56;;;;;;;1.40;1.30;;;;;;;-144.22;100.00;60274.75;6263383;28;20689;-41
2022/11/07 08:46:58;;;;;;;1.77;1.20;;;;;;;-144.22;100.00;60274.75;6265157;28;20618;-42
2022/11/07 08:50:06;;;;;;;1.90;1.20;;;;;;;-144.22;100.00;60274.75;6265025;28;20228;-42
2022/11/07 08:53:09;;;;;;;3.60;1.30;;;;;;;-144.22;100.00;60274.75;6266423;28;20231;-41
2022/11/07 08:56:11;;;;;;;1.50;1.33;;;;;;;-144.22;100.00;60274.75;6271578;28;20234;-42
2022/11/07 08:59:14;;;;;;;1.50;1.33;;;;;;;-144.22;100.00;60274.75;6265707;28;20318;-42
2022/11/07 09:02:16;;;;;;;1.10;1.00;;;;;;;-144.22;100.00;60274.75;6274024;28;20717;-42
2022/11/07 09:05:39;;;;;;;1.13;1.03;;;;;;;-144.22;100.00;60274.75;6269058;28;20232;-42
2022/11/07 09:08:41;;;;;;;1.30;1.20;;;;;;;-144.22;100.00;60274.75;6270386;28;20288;-42
2022/11/07 09:11:43;;;;;;;1.50;1.07;;;;;;;-144.22;100.00;60274.75;6266239;28;20234;-42
2022/11/07 09:14:45;;;;;;;1.87;1.37;;;;;;;-144.22;100.00;60274.75;6270690;28;20233;-42
2022/11/07 09:17:49;;;;;;;1.87;1.20;;;;;;;-144.22;100.00;60274.75;6267709;28;20244;-42
2022/11/07 09:20:52;;;;;;;1.30;1.20;;;;;;;-144.22;100.00;60274.75;6269578;28;20246;-41
2022/11/07 09:23:55;;;;;;;1.37;1.27;;;;;;;-144.22;100.00;60274.75;6269295;28;20237;-42
2022/11/07 09:26:57;;;;;;;1.23;0.93;;;;;;;-144.22;100.00;60274.75;6270367;28;20646;-42
2022/11/07 09:29:59;;;;;;;1.37;1.27;;;;;;;-144.22;100.00;60274.75;6268370;28;20226;-42
2022/11/07 09:33:01;;;;;;;2.00;1.20;;;;;;;-144.22;100.00;60274.75;6268934;28;20233;-42
2022/11/07 09:36:04;;;;;;;1.07;1.00;;;;;;;-144.22;100.00;60274.75;6266747;28;20231;-42
2022/11/07 09:39:06;;;;;;;3.30;1.17;;;;;;;-144.22;100.00;60274.75;6268593;28;20221;-42
2022/11/07 09:42:37;;;;;;;1.10;1.00;;;;;;;-144.22;100.00;60274.75;6267616;28;20599;-42
2022/11/07 09:46:20;;;;;;;1.63;1.30;;;;;;;-144.22;100.00;60274.75;6269222;28;20725;-41
2022/11/07 09:49:30;;;;;;;1.37;1.17;;;;;;;-144.22;100.00;60274.75;6161523;28;20317;-41
2022/11/07 09:52:41;;;;;;;0.80;0.80;;;;;;;-144.22;100.00;60274.75;6270285;28;20252;-41
2022/11/07 09:55:58;;;;;;;1.20;1.10;;;;;;;-144.22;100.00;60274.75;6270125;28;20361;-42
2022/11/07 09:59:15;;;;;;;1.00;0.90;;;;;;;-144.22;100.00;60274.75;6269164;28;20252;-41
2022/11/07 10:02:20;;;;;;;1.00;0.90;;;;;;;-144.22;100.00;60274.75;6252244;28;20288;-42
2022/11/07 10:05:45;;;;;;;1.23;1.00;;;;;;;-144.22;100.00;60274.75;6266412;28;20238;-42
2022/11/07 10:09:26;;;;;;;1.10;0.90;;;;;;;-144.22;100.00;60274.75;6267833;28;20244;-42
2022/11/07 10:13:00;;;;;;;1.30;1.20;;;;;;;-144.22;100.00;60274.75;6266180;28;20312;-41
2022/11/07 10:16:05;;;;;;;1.67;1.10;;;;;;;-144.22;100.00;60274.75;6235284;28;20227;-42
2022/11/07 10:19:52;;;;;;;1.10;1.00;;;;;;;-144.22;100.00;60274.75;6270016;28;20257;-41
2022/11/07 10:23:11;;;;;;;1.50;1.40;;;;;;;-144.22;100.00;60274.75;6267207;28;20241;-41
2022/11/07 10:26:18;;;;;;;2.03;0.93;;;;;;;-144.22;100.00;60274.75;6267054;28;20283;-41
2022/11/07 10:29:26;;;;;;;0.80;0.70;;;;;;;-144.22;100.00;60274.75;6266332;28;20238;-42
2022/11/07 10:32:51;;;;;;;0.83;0.70;;;;;;;-144.22;100.00;60274.75;6268878;28;20247;-42
2022/11/07 10:36:01;;;;;;;0.70;0.70;;;;;;;-144.22;100.00;60274.75;6267068;28;20296;-42
2022/11/07 10:39:17;;;;;;;0.63;0.43;;;;;;;-144.22;100.00;60274.75;6266411;28;20286;-42
2022/11/07 10:42:26;;;;;;;1.47;0.60;;;;;;;-144.22;100.00;60274.75;6261769;28;20689;-42
2022/11/07 10:45:28;;;;;;;1.13;0.80;;;;;;;-144.22;100.00;60274.75;6265559;28;20245;-41
2022/11/07 10:48:32;;;;;;;1.07;0.53;;;;;;;-144.22;100.00;60274.75;6267160;28;20233;-41
2022/11/07 10:51:39;;;;;;;0.57;0.50;;;;;;;-144.22;100.00;60274.75;6264035;28;20259;-42
2022/11/07 10:54:43;;;;;;;1.00;0.70;;;;;;;-144.22;100.00;60274.75;6267304;28;20250;-42
2022/11/07 10:57:52;;;;;;;0.90;0.60;;;;;;;-144.22;100.00;60274.75;6267127;28;20230;-43
2022/11/07 11:01:06;;;;;;;1.03;0.70;;;;;;;-144.22;100.00;60274.75;6266619;28;20243;-42
2022/11/07 11:04:20;;;;;;;0.57;0.57;;;;;;;-144.22;100.00;60274.75;6266944;28;20238;-42
2022/11/07 11:07:36;;;;;;;1.57;0.60;;;;;;;-144.22;100.00;60274.75;6265854;28;20231;-42
2022/11/07 11:10:38;;;;;;;2.00;0.60;;;;;;;-144.22;100.00;60274.75;6264273;28;20249;-42
2022/11/07 11:13:41;;;;;;;1.50;0.63;;;;;;;-144.22;100.00;60274.75;6266879;28;20265;-42
2022/11/07 11:16:43;;;;;;;0.77;0.50;;;;;;;-144.22;100.00;60274.75;6247337;28;20257;-42
2022/11/07 11:19:51;;;;;;;1.50;0.40;;;;;;;-144.22;100.00;60274.75;6266414;28;20728;-42
2022/11/07 11:22:53;;;;;;;0.40;0.40;;;;;;;-144.22;100.00;60274.75;6265579;28;20644;-41
2022/11/07 11:26:07;;;;;;;3.03;0.70;;;;;;;-144.22;100.00;60274.75;6246454;28;20628;-43
2022/11/07 11:29:19;;;;;;;0.93;0.60;;;;;;;-144.22;100.00;60274.75;6266877;28;20235;-42
2022/11/07 11:32:30;;;;;;;0.60;0.50;;;;;;;-144.22;100.00;60274.75;6264328;28;20231;-42
2022/11/07 11:35:54;;;;;;;1.27;0.70;;;;;;;-144.22;100.00;60274.75;6264243;28;20320;-42
2022/11/07 11:38:59;;;;;;;1.33;0.60;;;;;;;-144.22;100.00;60274.75;6265560;28;20223;-42
2022/11/07 11:42:03;;;;;;;0.40;0.40;;;;;;;-144.22;100.00;60274.75;6265764;28;20234;-42
2022/11/07 11:45:34;;;;;;;0.57;0.50;;;;;;;-144.22;100.00;60274.75;6264506;28;20246;-44
2022/11/07 11:49:22;;;;;;;1.40;0.60;;;;;;;-144.22;100.00;60274.75;6267791;28;20321;-42
2022/11/07 11:52:26;;;;;;;0.60;0.50;;;;;;;-144.22;100.00;60274.75;6263382;28;20602;-43
2022/11/07 11:55:37;;;;;;;1.37;0.57;;;;;;;-144.22;100.00;60274.75;6266241;28;20304;-42
2022/11/07 11:59:18;;;;;;;1.27;0.50;;;;;;;-144.22;100.00;60274.75;6262699;28;20242;-42
2022/11/07 12:02:49;;;;;;;1.50;0.87;;;;;;;-144.22;100.00;60274.75;6269016;28;20242;-42
2022/11/07 12:06:13;;;;;;;2.50;0.63;;;;;;;-144.22;100.00;60274.75;6264986;28;20266;-42
2022/11/07 12:09:24;;;;;;;1.23;0.70;;;;;;;-144.22;100.00;60274.75;6263696;28;20321;-42
2022/11/07 12:12:39;;;;;;;2.50;0.87;;;;;;;-144.22;100.00;60274.75;6264384;28;20226;-42
2022/11/07 12:15:57;;;;;;;1.60;0.70;;;;;;;-144.22;100.00;60274.75;6265093;28;20664;-42
2022/11/07 12:19:14;;;;;;;1.53;0.80;;;;;;;-144.22;100.00;60274.75;6264233;28;20226;-42
2022/11/07 12:22:26;;;;;;;1.10;0.73;;;;;;;-144.22;100.00;60274.75;6266623;28;20274;-42
2022/11/07 12:25:41;;;;;;;1.67;0.70;;;;;;;-144.22;100.00;60274.75;6264113;28;20241;-42
2022/11/07 12:28:49;;;;;;;1.10;0.60;;;;;;;-144.22;100.00;60274.75;6264846;28;20589;-44
2022/11/07 12:32:32;;;;;;;1.63;0.50;;;;;;;-144.22;100.00;60274.75;6263449;28;20227;-42
2022/11/07 12:35:53;;;;;;;1.20;0.40;;;;;;;-144.22;100.00;60274.75;6140467;28;20238;-42
2022/11/07 12:39:11;;;;;;;1.73;0.50;;;;;;;-144.22;100.00;60274.75;6139740;28;20317;-42
2022/11/07 12:42:13;;;;;;;2.27;0.50;;;;;;;-144.22;100.00;60274.75;6137948;28;20418;-43
2022/11/07 12:45:38;;;;;;;0.73;0.47;;;;;;;-144.22;100.00;60274.75;6139011;28;20318;-43
2022/11/07 12:48:56;;;;;;;0.77;0.40;;;;;;;-144.22;100.00;60274.75;6132930;28;20301;-44
2022/11/07 12:52:10;;;;;;;1.13;0.60;;;;;;;-144.22;100.00;60274.75;6118343;29;20726;-43
2022/11/07 12:55:28;;;;;;;2.63;0.70;;;;;;;-144.22;100.00;60274.75;6118467;29;20242;-42
2022/11/07 12:58:33;;;;;;;1.00;0.50;;;;;;;-144.22;100.00;60274.75;6116292;29;20287;-43
2022/11/07 13:01:59;;;;;;;1.17;0.60;;;;;;;-144.22;100.00;60274.75;6117685;29;20786;-42
2022/11/07 13:05:17;;;;;;;0.40;0.40;;;;;;;-144.22;100.00;60274.75;6129315;28;20239;-42
2022/11/07 13:09:13;;;;;;;1.67;0.70;;;;;;;-144.22;100.00;60274.75;6214798;28;20232;-43
2022/11/07 13:12:18;;;;;;;1.57;0.77;;;;;;;-144.22;100.00;60274.75;6104408;29;20727;-42
2022/11/07 13:15:20;;;;;;;0.67;0.33;;;;;;;-144.22;100.00;60274.75;6110033;28;20234;-42
2022/11/07 13:18:26;;;;;;;1.37;0.60;;;;;;;-144.22;100.00;60274.75;6215024;28;20255;-43
2022/11/07 13:21:39;;;;;;;4.33;0.70;;;;;;;-144.22;100.00;60274.75;6215817;28;20220;-42
2022/11/07 13:25:15;;;;;;;1.43;0.63;;;;;;;-144.22;100.00;60274.75;6214472;28;20236;-43
2022/11/07 13:28:30;;;;;;;2.33;0.70;;;;;;;-144.22;100.00;60274.75;6203652;28;20618;-41
2022/11/07 13:31:36;;;;;;;2.47;0.70;;;;;;;-144.22;100.00;60274.75;6216132;28;20463;-42
2022/11/07 13:34:57;;;;;;;0.77;0.47;;;;;;;-144.22;100.00;60274.75;6213166;28;20604;-42
2022/11/07 13:38:10;;;;;;;1.33;0.50;;;;;;;-144.22;100.00;60274.75;6213394;28;20232;-41
2022/11/07 13:41:13;;;;;;;1.50;0.60;;;;;;;-144.22;100.00;60274.75;6214790;28;20239;-41
2022/11/07 13:44:37;;;;;;;1.10;0.70;;;;;;;-144.22;100.00;60274.75;6215091;28;20239;-42
2022/11/07 13:47:41;;;;;;;0.83;0.50;;;;;;;-144.22;100.00;60274.75;6219544;28;20334;-42
2022/11/07 13:50:53;;;;;;;0.50;0.50;;;;;;;-144.22;100.00;60274.75;6268494;28;20770;-42
2022/11/07 13:54:04;;;;;;;0.87;0.40;;;;;;;-144.22;100.00;60274.75;6274328;28;20250;-42
2022/11/07 13:57:22;;;;;;;0.60;0.40;;;;;;;-144.22;100.00;60274.75;6268615;28;20224;-42
2022/11/07 14:00:27;;;;;;;1.07;0.50;;;;;;;-144.22;100.00;60274.75;6265960;28;20226;-42
2022/11/07 14:03:29;;;;;;;1.50;0.63;;;;;;;-144.22;100.00;60274.75;6268193;28;20284;-41
2022/11/07 14:06:31;;;;;;;1.97;0.73;;;;;;;-144.22;100.00;60274.75;6266209;28;20635;-42
2022/11/07 14:09:33;;;;;;;2.50;0.70;;;;;;;-144.22;100.00;60274.75;6267171;28;20343;-42
2022/11/07 14:12:37;;;;;;;1.63;0.60;;;;;;;-144.22;100.00;60274.75;6267618;28;20757;-42
2022/11/07 14:15:48;;;;;;;0.40;0.40;;;;;;;-144.22;100.00;60274.75;6265168;28;20623;-42
2022/11/07 14:19:05;;;;;;;0.70;0.40;;;;;;;-144.22;100.00;60274.75;6269403;28;20246;-42
2022/11/07 14:22:47;;;;;;;3.07;0.70;;;;;;;-144.22;100.00;60274.75;6273060;28;20264;-42
2022/11/07 14:26:01;;;;;;;0.90;0.50;;;;;;;-144.22;100.00;60274.75;6121015;29;20317;-42